createdAt,value
2017-05-13T00:00:32.028Z,1002.77
2017-05-13T00:01:40.988Z,1002.79
2017-05-13T00:02:49.947Z,1002.76
2017-05-13T00:03:58.908Z,1002.74
2017-05-13T00:05:08.118Z,1002.73
2017-05-13T00:06:17.076Z,1002.76
2017-05-13T00:07:26.124Z,1002.76
2017-05-13T00:08:35.085Z,1002.74
2017-05-13T00:09:44.043Z,1002.76
2017-05-13T00:10:53.255Z,1002.75
2017-05-13T00:12:02.216Z,1002.8
2017-05-13T00:13:11.177Z,1002.77
2017-05-13T00:14:20.143Z,1002.75
2017-05-13T00:15:29.101Z,1002.76
2017-05-13T00:16:38.312Z,1002.72
2017-05-13T00:17:47.595Z,1002.72
2017-05-13T00:18:56.607Z,1002.74
2017-05-13T00:20:05.560Z,1002.74
2017-05-13T00:21:14.530Z,1002.76
2017-05-13T00:22:23.792Z,1002.75
2017-05-13T00:23:32.754Z,1002.74
2017-05-13T00:24:41.723Z,1002.77
2017-05-13T00:25:50.684Z,1002.76
2017-05-13T00:26:59.650Z,1002.71
2017-05-13T00:28:08.853Z,1002.71
2017-05-13T00:29:17.816Z,1002.69
2017-05-13T00:30:26.782Z,1002.68
2017-05-13T00:31:35.747Z,1002.73
2017-05-13T00:32:44.709Z,1002.71
2017-05-13T00:33:53.922Z,1002.69
2017-05-13T00:35:02.885Z,1002.67
2017-05-13T00:36:11.853Z,1002.7
2017-05-13T00:37:20.815Z,1002.71
2017-05-13T00:38:29.776Z,1002.69
2017-05-13T00:39:38.996Z,1002.66
2017-05-13T00:40:48.290Z,1002.67
2017-05-13T00:41:57.258Z,1002.69
2017-05-13T00:43:06.221Z,1002.68
2017-05-13T00:44:15.179Z,1002.69
2017-05-13T00:45:24.388Z,1002.68
2017-05-13T00:46:33.345Z,1002.67
2017-05-13T00:47:42.309Z,1002.67
2017-05-13T00:48:51.273Z,1002.64
2017-05-13T00:50:00.553Z,1002.67
2017-05-13T00:51:09.764Z,1002.65
2017-05-13T00:52:18.727Z,1002.63
2017-05-13T00:53:27.696Z,1002.61
2017-05-13T00:54:36.655Z,1002.63
2017-05-13T00:55:45.612Z,1002.61
2017-05-13T00:56:54.818Z,1002.6
2017-05-13T00:58:03.781Z,1002.64
2017-05-13T00:59:12.836Z,1002.59
2017-05-13T01:00:21.803Z,1002.64
2017-05-13T01:01:30.760Z,1002.61
2017-05-13T01:02:39.972Z,1002.62
2017-05-13T01:03:48.937Z,1002.65
2017-05-13T01:04:57.898Z,1002.62
2017-05-13T01:06:06.945Z,1002.67
2017-05-13T01:07:15.990Z,1002.64
2017-05-13T01:08:25.200Z,1002.67
2017-05-13T01:09:34.161Z,1002.61
2017-05-13T01:10:43.129Z,1002.69
2017-05-13T01:11:52.268Z,1002.65
2017-05-13T01:13:01.228Z,1002.68
2017-05-13T01:14:10.493Z,1002.68
2017-05-13T01:15:19.455Z,1002.69
2017-05-13T01:16:28.422Z,1002.69
2017-05-13T01:17:37.474Z,1002.7
2017-05-13T01:18:46.563Z,1002.67
2017-05-13T01:19:55.777Z,1002.66
2017-05-13T01:21:04.735Z,1002.69
2017-05-13T01:22:13.695Z,1002.7
2017-05-13T01:23:22.979Z,1002.63
2017-05-13T01:24:31.944Z,1002.65
2017-05-13T01:25:41.160Z,1002.67
2017-05-13T01:26:50.123Z,1002.67
2017-05-13T01:27:59.084Z,1002.66
2017-05-13T01:29:08.040Z,1002.69
2017-05-13T01:30:17.330Z,1002.71
2017-05-13T01:31:26.558Z,1002.68
2017-05-13T01:32:35.515Z,1002.68
2017-05-13T01:33:44.472Z,1002.68
2017-05-13T01:34:53.436Z,1002.66
2017-05-13T01:36:02.399Z,1002.66
2017-05-13T01:37:11.609Z,1002.67
2017-05-13T01:38:20.574Z,1002.65
2017-05-13T01:39:29.530Z,1002.65
2017-05-13T01:40:38.582Z,1002.67
2017-05-13T01:41:47.630Z,1002.67
2017-05-13T01:42:56.843Z,1002.65
2017-05-13T01:44:05.805Z,1002.66
2017-05-13T01:45:14.767Z,1002.67
2017-05-13T01:46:23.723Z,1002.7
2017-05-13T01:47:32.689Z,1002.67
2017-05-13T01:48:41.919Z,1002.75
2017-05-13T01:49:50.875Z,1002.73
2017-05-13T01:50:59.836Z,1002.71
2017-05-13T01:52:08.796Z,1002.73
2017-05-13T01:53:17.843Z,1002.71
2017-05-13T01:54:27.055Z,1002.75
2017-05-13T01:55:36.027Z,1002.76
2017-05-13T01:56:44.992Z,1002.77
2017-05-13T01:57:53.961Z,1002.75
2017-05-13T01:59:03.010Z,1002.77
2017-05-13T02:00:12.223Z,1002.77
2017-05-13T02:01:21.187Z,1002.79
2017-05-13T02:02:30.169Z,1002.81
2017-05-13T02:03:39.126Z,1002.8
2017-05-13T02:04:48.090Z,1002.81
2017-05-13T02:05:57.297Z,1002.82
2017-05-13T02:07:06.263Z,1002.79
2017-05-13T02:08:15.226Z,1002.79
2017-05-13T02:09:24.189Z,1002.78
2017-05-13T02:10:33.236Z,1002.78
2017-05-13T02:11:42.608Z,1002.81
2017-05-13T02:12:51.656Z,1002.85
2017-05-13T02:14:00.705Z,1002.82
2017-05-13T02:15:09.666Z,1002.84
2017-05-13T02:16:18.626Z,1002.86
2017-05-13T02:17:27.837Z,1002.91
2017-05-13T02:18:36.793Z,1002.92
2017-05-13T02:19:45.751Z,1002.97
2017-05-13T02:20:54.719Z,1002.97
2017-05-13T02:22:03.674Z,1002.97
2017-05-13T02:23:12.884Z,1002.98
2017-05-13T02:24:21.882Z,1003
2017-05-13T02:25:30.939Z,1002.99
2017-05-13T02:26:39.892Z,1003.02
2017-05-13T02:27:48.865Z,1003.03
2017-05-13T02:28:58.403Z,1003.01
2017-05-13T02:30:07.367Z,1003.02
2017-05-13T02:31:16.423Z,1003.03
2017-05-13T02:32:25.380Z,1003.02
2017-05-13T02:33:34.341Z,1003.05
2017-05-13T02:34:43.639Z,1003.03
2017-05-13T02:35:52.719Z,1003.06
2017-05-13T02:37:01.684Z,1003.04
2017-05-13T02:38:10.647Z,1003.09
2017-05-13T02:39:19.609Z,1003.05
2017-05-13T02:40:28.819Z,1003.1
2017-05-13T02:41:37.775Z,1003.08
2017-05-13T02:42:46.737Z,1003.08
2017-05-13T02:43:55.703Z,1003.09
2017-05-13T02:45:04.660Z,1003.1
2017-05-13T02:46:13.862Z,1003.11
2017-05-13T02:47:22.817Z,1003.11
2017-05-13T02:48:31.773Z,1003.12
2017-05-13T02:49:40.733Z,1003.12
2017-05-13T02:50:49.700Z,1003.14
2017-05-13T02:51:58.911Z,1003.14
2017-05-13T02:53:07.869Z,1003.16
2017-05-13T02:54:16.831Z,1003.17
2017-05-13T02:55:25.790Z,1003.13
2017-05-13T02:56:34.886Z,1003.17
2017-05-13T02:57:44.095Z,1003.14
2017-05-13T02:58:53.056Z,1003.14
2017-05-13T03:00:02.024Z,1003.17
2017-05-13T03:01:10.987Z,1003.17
2017-05-13T03:02:19.947Z,1003.19
2017-05-13T03:03:29.239Z,1003.19
2017-05-13T03:04:38.203Z,1003.19
2017-05-13T03:05:49.144Z,1003.17
2017-05-13T03:06:58.198Z,1003.21
2017-05-13T03:08:07.164Z,1003.2
2017-05-13T03:09:16.421Z,1003.18
2017-05-13T03:10:25.386Z,1003.22
2017-05-13T03:11:34.341Z,1003.2
2017-05-13T03:12:43.622Z,1003.18
2017-05-13T03:13:52.594Z,1003.19
2017-05-13T03:15:01.805Z,1003.22
2017-05-13T03:16:10.776Z,1003.21
2017-05-13T03:17:19.759Z,1003.24
2017-05-13T03:18:28.722Z,1003.28
2017-05-13T03:19:37.679Z,1003.25
2017-05-13T03:20:46.943Z,1003.26
2017-05-13T03:21:55.994Z,1003.23
2017-05-13T03:23:04.958Z,1003.26
2017-05-13T03:24:13.919Z,1003.26
2017-05-13T03:25:22.881Z,1003.26
2017-05-13T03:26:32.142Z,1003.29
2017-05-13T03:27:41.162Z,1003.27
2017-05-13T03:28:50.530Z,1003.3
2017-05-13T03:29:59.814Z,1003.28
2017-05-13T03:31:08.967Z,1003.26
2017-05-13T03:32:18.230Z,1003.28
2017-05-13T03:33:27.185Z,1003.29
2017-05-13T03:34:36.229Z,1003.29
2017-05-13T03:35:45.285Z,1003.31
2017-05-13T03:36:54.242Z,1003.36
2017-05-13T03:38:03.453Z,1003.37
2017-05-13T03:39:12.415Z,1003.32
2017-05-13T03:40:21.379Z,1003.33
2017-05-13T03:41:30.340Z,1003.32
2017-05-13T03:42:39.295Z,1003.33
2017-05-13T03:43:48.598Z,1003.34
2017-05-13T03:44:57.555Z,1003.34
2017-05-13T03:46:06.519Z,1003.32
2017-05-13T03:47:15.478Z,1003.32
2017-05-13T03:48:24.442Z,1003.34
2017-05-13T03:49:33.797Z,1003.36
2017-05-13T03:50:42.892Z,1003.34
2017-05-13T03:51:51.858Z,1003.33
2017-05-13T03:53:00.819Z,1003.37
2017-05-13T03:54:09.782Z,1003.38
2017-05-13T03:55:18.991Z,1003.38
2017-05-13T03:56:28.272Z,1003.4
2017-05-13T03:57:37.229Z,1003.39
2017-05-13T03:58:46.191Z,1003.39
2017-05-13T03:59:55.148Z,1003.37
2017-05-13T04:01:04.359Z,1003.41
2017-05-13T04:02:13.320Z,1003.4
2017-05-13T04:03:22.287Z,1003.37
2017-05-13T04:04:31.246Z,1003.38
2017-05-13T04:05:40.201Z,1003.44
2017-05-13T04:06:49.459Z,1003.39
2017-05-13T04:07:58.420Z,1003.4
2017-05-13T04:09:07.381Z,1003.42
2017-05-13T04:10:16.425Z,1003.43
2017-05-13T04:11:25.380Z,1003.46
2017-05-13T04:12:34.591Z,1003.45
2017-05-13T04:13:43.562Z,1003.48
2017-05-13T04:14:52.522Z,1003.44
2017-05-13T04:16:01.482Z,1003.47
2017-05-13T04:17:10.441Z,1003.46
2017-05-13T04:18:19.704Z,1003.47
2017-05-13T04:19:28.669Z,1003.5
2017-05-13T04:20:37.624Z,1003.46
2017-05-13T04:21:46.585Z,1003.47
2017-05-13T04:22:55.597Z,1003.5
2017-05-13T04:24:04.856Z,1003.51
2017-05-13T04:25:13.906Z,1003.51
2017-05-13T04:26:22.864Z,1003.53
2017-05-13T04:27:31.870Z,1003.51
2017-05-13T04:28:40.831Z,1003.53
2017-05-13T04:29:50.369Z,1003.54
2017-05-13T04:30:59.329Z,1003.54
2017-05-13T04:32:08.295Z,1003.5
2017-05-13T04:33:17.304Z,1003.53
2017-05-13T04:34:26.271Z,1003.55
2017-05-13T04:35:35.474Z,1003.56
2017-05-13T04:36:44.434Z,1003.54
2017-05-13T04:37:53.478Z,1003.54
2017-05-13T04:39:02.520Z,1003.55
2017-05-13T04:40:11.479Z,1003.55
2017-05-13T04:41:20.692Z,1003.52
2017-05-13T04:42:29.655Z,1003.53
2017-05-13T04:43:39.027Z,1003.56
2017-05-13T04:44:47.984Z,1003.57
2017-05-13T04:45:56.945Z,1003.58
2017-05-13T04:47:06.151Z,1003.61
2017-05-13T04:48:15.117Z,1003.59
2017-05-13T04:49:24.088Z,1003.61
2017-05-13T04:50:33.137Z,1003.61
2017-05-13T04:51:42.096Z,1003.61
2017-05-13T04:52:51.349Z,1003.62
2017-05-13T04:54:00.402Z,1003.63
2017-05-13T04:55:09.364Z,1003.62
2017-05-13T04:56:18.320Z,1003.62
2017-05-13T04:57:27.277Z,1003.66
2017-05-13T04:58:36.859Z,1003.63
2017-05-13T04:59:45.915Z,1003.64
2017-05-13T05:00:54.961Z,1003.66
2017-05-13T05:02:03.929Z,1003.66
2017-05-13T05:03:12.889Z,1003.68
2017-05-13T05:04:22.146Z,1003.65
2017-05-13T05:05:31.183Z,1003.65
2017-05-13T05:06:40.145Z,1003.65
2017-05-13T05:07:49.102Z,1003.65
2017-05-13T05:08:58.066Z,1003.68
2017-05-13T05:10:07.283Z,1003.68
2017-05-13T05:11:16.244Z,1003.72
2017-05-13T05:12:25.626Z,1003.69
2017-05-13T05:13:34.583Z,1003.73
2017-05-13T05:14:43.539Z,1003.75
2017-05-13T05:15:52.750Z,1003.74
2017-05-13T05:17:01.709Z,1003.73
2017-05-13T05:18:10.664Z,1003.74
2017-05-13T05:19:19.627Z,1003.75
2017-05-13T05:20:28.588Z,1003.77
2017-05-13T05:21:37.938Z,1003.79
2017-05-13T05:22:46.896Z,1003.79
2017-05-13T05:23:55.952Z,1003.82
2017-05-13T05:25:04.912Z,1003.84
2017-05-13T05:26:13.867Z,1003.83
2017-05-13T05:27:23.455Z,1003.83
2017-05-13T05:28:32.417Z,1003.86
2017-05-13T05:29:41.377Z,1003.89
2017-05-13T05:30:50.424Z,1003.92
2017-05-13T05:31:59.390Z,1003.97
2017-05-13T05:33:08.596Z,1003.99
2017-05-13T05:34:17.554Z,1004.03
2017-05-13T05:35:26.515Z,1004.06
2017-05-13T05:36:35.470Z,1004.09
2017-05-13T05:37:44.428Z,1004.11
2017-05-13T05:38:53.773Z,1004.11
2017-05-13T05:40:02.730Z,1004.09
2017-05-13T05:41:11.686Z,1004.14
2017-05-13T05:42:20.649Z,1004.11
2017-05-13T05:43:29.607Z,1004.15
2017-05-13T05:44:38.812Z,1004.18
2017-05-13T05:45:47.781Z,1004.15
2017-05-13T05:46:56.738Z,1004.17
2017-05-13T05:48:05.698Z,1004.21
2017-05-13T05:49:14.787Z,1004.21
2017-05-13T05:50:24.046Z,1004.19
2017-05-13T05:51:33.009Z,1004.22
2017-05-13T05:52:42.139Z,1004.22
2017-05-13T05:53:51.099Z,1004.25
2017-05-13T05:55:00.059Z,1004.31
2017-05-13T05:56:09.270Z,1004.31
2017-05-13T05:57:18.230Z,1004.35
2017-05-13T05:58:27.278Z,1004.34
2017-05-13T05:59:36.236Z,1004.33
2017-05-13T06:00:45.197Z,1004.33
2017-05-13T06:01:54.492Z,1004.4
2017-05-13T06:03:03.447Z,1004.37
2017-05-13T06:04:12.407Z,1004.4
2017-05-13T06:05:21.365Z,1004.42
2017-05-13T06:06:30.325Z,1004.44
2017-05-13T06:07:39.537Z,1004.49
2017-05-13T06:08:48.490Z,1004.46
2017-05-13T06:09:57.448Z,1004.5
2017-05-13T06:11:06.402Z,1004.53
2017-05-13T06:12:15.364Z,1004.54
2017-05-13T06:13:24.634Z,1004.52
2017-05-13T06:14:33.592Z,1004.52
2017-05-13T06:15:42.572Z,1004.52
2017-05-13T06:16:51.531Z,1004.52
2017-05-13T06:18:00.490Z,1004.52
2017-05-13T06:19:09.696Z,1004.52
2017-05-13T06:20:18.651Z,1004.55
2017-05-13T06:21:27.609Z,1004.58
2017-05-13T06:22:36.568Z,1004.58
2017-05-13T06:23:45.541Z,1004.62
2017-05-13T06:24:54.796Z,1004.6
2017-05-13T06:26:03.845Z,1004.57
2017-05-13T06:27:12.826Z,1004.6
2017-05-13T06:28:21.876Z,1004.57
2017-05-13T06:29:30.832Z,1004.56
2017-05-13T06:30:40.182Z,1004.6
2017-05-13T06:31:49.184Z,1004.57
2017-05-13T06:32:58.139Z,1004.6
2017-05-13T06:34:07.097Z,1004.56
2017-05-13T06:35:16.061Z,1004.55
2017-05-13T06:36:25.355Z,1004.63
2017-05-13T06:37:34.412Z,1004.62
2017-05-13T06:38:43.695Z,1004.6
2017-05-13T06:39:52.659Z,1004.64
2017-05-13T06:41:01.617Z,1004.66
2017-05-13T06:42:10.910Z,1004.62
2017-05-13T06:43:19.869Z,1004.64
2017-05-13T06:44:28.822Z,1004.66
2017-05-13T06:45:37.775Z,1004.66
2017-05-13T06:46:46.731Z,1004.66
2017-05-13T06:47:56.036Z,1004.65
2017-05-13T06:49:04.992Z,1004.69
2017-05-13T06:50:13.951Z,1004.68
2017-05-13T06:51:22.994Z,1004.66
2017-05-13T06:52:32.005Z,1004.66
2017-05-13T06:53:41.265Z,1004.66
2017-05-13T06:54:50.227Z,1004.71
2017-05-13T06:55:59.192Z,1004.68
2017-05-13T06:57:08.153Z,1004.7
2017-05-13T06:58:17.455Z,1004.75
2017-05-13T06:59:26.718Z,1004.7
2017-05-13T07:00:35.766Z,1004.71
2017-05-13T07:01:44.723Z,1004.75
2017-05-13T07:02:53.720Z,1004.75
2017-05-13T07:04:02.685Z,1004.81
2017-05-13T07:05:11.978Z,1004.8
2017-05-13T07:06:20.943Z,1004.82
2017-05-13T07:07:29.899Z,1004.8
2017-05-13T07:08:38.862Z,1004.76
2017-05-13T07:09:48.241Z,1004.77
2017-05-13T07:10:57.499Z,1004.77
2017-05-13T07:12:06.462Z,1004.81
2017-05-13T07:13:15.424Z,1004.83
2017-05-13T07:14:24.381Z,1004.86
2017-05-13T07:15:33.438Z,1004.88
2017-05-13T07:16:42.705Z,1004.88
2017-05-13T07:17:52.394Z,1004.89
2017-05-13T07:19:01.355Z,1004.96
2017-05-13T07:20:10.402Z,1004.98
2017-05-13T07:21:19.356Z,1004.99
2017-05-13T07:22:28.653Z,1004.96
2017-05-13T07:23:37.616Z,1005.01
2017-05-13T07:24:46.581Z,1004.99
2017-05-13T07:25:55.549Z,1005.03
2017-05-13T07:27:04.511Z,1005.03
2017-05-13T07:28:13.715Z,1005.12
2017-05-13T07:29:22.680Z,1005.16
2017-05-13T07:30:31.733Z,1005.15
2017-05-13T07:31:40.696Z,1005.15
2017-05-13T07:32:49.696Z,1005.13
2017-05-13T07:33:58.904Z,1005.19
2017-05-13T07:35:07.951Z,1005.16
2017-05-13T07:36:16.908Z,1005.16
2017-05-13T07:37:25.867Z,1005.19
2017-05-13T07:38:34.881Z,1005.2
2017-05-13T07:39:44.144Z,1005.22
2017-05-13T07:40:53.103Z,1005.2
2017-05-13T07:42:02.069Z,1005.16
2017-05-13T07:43:11.028Z,1005.16
2017-05-13T07:44:20.037Z,1005.15
2017-05-13T07:45:29.298Z,1005.19
2017-05-13T07:46:38.254Z,1005.21
2017-05-13T07:47:47.554Z,1005.18
2017-05-13T07:48:56.517Z,1005.21
2017-05-13T07:50:05.564Z,1005.2
2017-05-13T07:51:14.773Z,1005.27
2017-05-13T07:52:23.735Z,1005.25
2017-05-13T07:53:32.729Z,1005.29
2017-05-13T07:54:41.782Z,1005.3
2017-05-13T07:55:50.840Z,1005.31
2017-05-13T07:57:00.101Z,1005.33
2017-05-13T07:58:09.062Z,1005.34
2017-05-13T07:59:18.021Z,1005.37
2017-05-13T08:00:26.986Z,1005.35
2017-05-13T08:01:35.948Z,1005.43
2017-05-13T08:02:45.206Z,1005.39
2017-05-13T08:03:54.159Z,1005.45
2017-05-13T08:05:03.121Z,1005.47
2017-05-13T08:06:12.083Z,1005.55
2017-05-13T08:07:21.048Z,1005.59
2017-05-13T08:08:30.481Z,1005.6
2017-05-13T08:09:39.440Z,1005.62
2017-05-13T08:10:48.397Z,1005.61
2017-05-13T08:11:57.359Z,1005.65
2017-05-13T08:13:06.646Z,1005.66
2017-05-13T08:14:16.218Z,1005.64
2017-05-13T08:15:25.179Z,1005.67
2017-05-13T08:16:34.138Z,1005.7
2017-05-13T08:17:43.104Z,1005.69
2017-05-13T08:18:52.063Z,1005.71
2017-05-13T08:20:01.323Z,1005.7
2017-05-13T08:21:10.293Z,1005.73
2017-05-13T08:22:19.251Z,1005.78
2017-05-13T08:23:28.251Z,1005.78
2017-05-13T08:24:37.299Z,1005.78
2017-05-13T08:25:46.514Z,1005.81
2017-05-13T08:26:55.472Z,1005.8
2017-05-13T08:28:04.436Z,1005.83
2017-05-13T08:29:13.479Z,1005.86
2017-05-13T08:30:22.455Z,1005.84
2017-05-13T08:31:31.800Z,1005.86
2017-05-13T08:32:40.757Z,1005.86
2017-05-13T08:33:49.718Z,1005.91
2017-05-13T08:34:58.772Z,1005.9
2017-05-13T08:36:07.730Z,1005.92
2017-05-13T08:37:16.937Z,1005.97
2017-05-13T08:38:25.902Z,1005.95
2017-05-13T08:39:34.868Z,1005.97
2017-05-13T08:40:43.830Z,1005.98
2017-05-13T08:41:52.797Z,1005.96
2017-05-13T08:43:02.059Z,1006.02
2017-05-13T08:44:11.024Z,1006.02
2017-05-13T08:45:19.987Z,1006.01
2017-05-13T08:46:28.942Z,1006.05
2017-05-13T08:47:37.908Z,1006.04
2017-05-13T08:48:47.124Z,1006.09
2017-05-13T08:49:56.175Z,1006.13
2017-05-13T08:51:05.134Z,1006.13
2017-05-13T08:52:14.090Z,1006.15
2017-05-13T08:53:23.367Z,1006.15
2017-05-13T08:54:32.672Z,1006.17
2017-05-13T08:55:41.634Z,1006.2
2017-05-13T08:56:50.594Z,1006.2
2017-05-13T08:57:59.554Z,1006.21
2017-05-13T08:59:08.513Z,1006.25
2017-05-13T09:00:17.721Z,1006.25
2017-05-13T09:01:26.682Z,1006.3
2017-05-13T09:02:35.644Z,1006.27
2017-05-13T09:03:44.734Z,1006.23
2017-05-13T09:04:54.047Z,1006.26
2017-05-13T09:06:03.314Z,1006.3
2017-05-13T09:07:12.277Z,1006.27
2017-05-13T09:08:21.265Z,1006.29
2017-05-13T09:09:30.377Z,1006.28
2017-05-13T09:10:39.385Z,1006.29
2017-05-13T09:11:48.646Z,1006.31
2017-05-13T09:12:57.606Z,1006.32
2017-05-13T09:14:06.562Z,1006.32
2017-05-13T09:15:15.518Z,1006.35
2017-05-13T09:16:24.479Z,1006.35
2017-05-13T09:17:33.738Z,1006.36
2017-05-13T09:18:42.824Z,1006.36
2017-05-13T09:19:51.871Z,1006.38
2017-05-13T09:21:00.840Z,1006.37
2017-05-13T09:22:09.844Z,1006.41
2017-05-13T09:23:19.105Z,1006.39
2017-05-13T09:24:28.151Z,1006.43
2017-05-13T09:25:37.113Z,1006.38
2017-05-13T09:26:46.067Z,1006.43
2017-05-13T09:27:55.111Z,1006.41
2017-05-13T09:29:04.412Z,1006.4
2017-05-13T09:30:13.379Z,1006.48
2017-05-13T09:31:22.341Z,1006.47
2017-05-13T09:32:31.392Z,1006.44
2017-05-13T09:33:40.519Z,1006.46
2017-05-13T09:34:49.776Z,1006.46
2017-05-13T09:35:58.756Z,1006.46
2017-05-13T09:37:07.858Z,1006.48
2017-05-13T09:38:17.127Z,1006.48
2017-05-13T09:39:32.449Z,1006.44
2017-05-13T09:40:41.709Z,1006.46
2017-05-13T09:41:50.667Z,1006.49
2017-05-13T09:42:59.625Z,1006.47
2017-05-13T09:44:08.592Z,1006.46
2017-05-13T09:45:17.553Z,1006.47
2017-05-13T09:46:26.760Z,1006.47
2017-05-13T09:47:35.724Z,1006.49
2017-05-13T09:48:44.689Z,1006.51
2017-05-13T09:49:53.649Z,1006.47
2017-05-13T09:51:02.607Z,1006.5
2017-05-13T09:52:11.865Z,1006.49
2017-05-13T09:53:20.826Z,1006.48
2017-05-13T09:54:29.871Z,1006.47
2017-05-13T09:55:38.829Z,1006.46
2017-05-13T09:56:47.787Z,1006.49
2017-05-13T09:57:57.001Z,1006.49
2017-05-13T09:59:05.965Z,1006.53
2017-05-13T10:00:14.923Z,1006.54
2017-05-13T10:01:23.882Z,1006.52
2017-05-13T10:02:32.838Z,1006.58
2017-05-13T10:03:42.273Z,1006.57
2017-05-13T10:04:51.316Z,1006.58
2017-05-13T10:06:00.275Z,1006.6
2017-05-13T10:07:09.229Z,1006.61
2017-05-13T10:08:18.324Z,1006.67
2017-05-13T10:09:27.583Z,1006.66
2017-05-13T10:10:36.541Z,1006.65
2017-05-13T10:11:45.503Z,1006.67
2017-05-13T10:12:54.464Z,1006.68
2017-05-13T10:14:03.419Z,1006.67
2017-05-13T10:15:12.690Z,1006.66
2017-05-13T10:16:21.649Z,1006.65
2017-05-13T10:17:30.926Z,1006.67
2017-05-13T10:18:39.887Z,1006.7
2017-05-13T10:19:49.175Z,1006.66
2017-05-13T10:20:58.386Z,1006.77
2017-05-13T10:22:07.344Z,1006.72
2017-05-13T10:23:16.295Z,1006.74
2017-05-13T10:24:25.263Z,1006.77
2017-05-13T10:25:34.216Z,1006.78
2017-05-13T10:26:43.478Z,1006.79
2017-05-13T10:27:52.521Z,1006.79
2017-05-13T10:29:01.564Z,1006.85
2017-05-13T10:30:10.525Z,1006.83
2017-05-13T10:31:19.480Z,1006.85
2017-05-13T10:32:28.739Z,1006.89
2017-05-13T10:33:37.700Z,1006.85
2017-05-13T10:34:47.032Z,1006.86
2017-05-13T10:35:55.991Z,1006.87
2017-05-13T10:37:04.946Z,1006.88
2017-05-13T10:38:14.203Z,1006.87
2017-05-13T10:39:23.162Z,1006.89
2017-05-13T10:40:32.119Z,1006.91
2017-05-13T10:41:41.078Z,1006.92
2017-05-13T10:42:50.447Z,1006.91
2017-05-13T10:43:59.705Z,1006.95
2017-05-13T10:45:08.665Z,1006.94
2017-05-13T10:46:17.618Z,1006.98
2017-05-13T10:47:26.574Z,1006.96
2017-05-13T10:48:35.534Z,1006.94
2017-05-13T10:49:44.740Z,1006.93
2017-05-13T10:50:53.700Z,1006.92
2017-05-13T10:52:02.663Z,1006.97
2017-05-13T10:53:11.628Z,1006.92
2017-05-13T10:54:20.591Z,1006.96
2017-05-13T10:55:29.849Z,1006.94
2017-05-13T10:56:38.812Z,1006.99
2017-05-13T10:57:47.769Z,1006.96
2017-05-13T10:58:56.729Z,1006.96
2017-05-13T11:00:05.687Z,1006.96
2017-05-13T11:01:14.961Z,1006.98
2017-05-13T11:02:23.921Z,1006.97
2017-05-13T11:03:32.893Z,1006.98
2017-05-13T11:04:41.852Z,1006.99
2017-05-13T11:05:51.145Z,1006.94
2017-05-13T11:07:00.414Z,1006.92
2017-05-13T11:08:09.471Z,1006.96
2017-05-13T11:09:18.759Z,1006.94
2017-05-13T11:10:27.717Z,1006.96
2017-05-13T11:11:36.673Z,1006.97
2017-05-13T11:12:45.936Z,1006.96
2017-05-13T11:13:54.893Z,1007.02
2017-05-13T11:15:03.855Z,1006.99
2017-05-13T11:16:12.815Z,1006.99
2017-05-13T11:17:21.771Z,1006.96
2017-05-13T11:18:31.030Z,1007
2017-05-13T11:19:39.990Z,1006.98
2017-05-13T11:20:48.950Z,1006.97
2017-05-13T11:21:58.242Z,1007
2017-05-13T11:23:07.520Z,1007.02
2017-05-13T11:24:16.907Z,1007
2017-05-13T11:25:25.953Z,1007.02
2017-05-13T11:26:35.001Z,1007.02
2017-05-13T11:27:43.967Z,1007.02
2017-05-13T11:28:52.928Z,1007.01
2017-05-13T11:30:02.197Z,1007.02
2017-05-13T11:31:11.161Z,1007.01
2017-05-13T11:32:20.121Z,1007.03
2017-05-13T11:33:29.084Z,1007.02
2017-05-13T11:34:38.041Z,1007.06
2017-05-13T11:35:47.394Z,1007.05
2017-05-13T11:36:56.348Z,1007.09
2017-05-13T11:38:05.310Z,1007.04
2017-05-13T11:39:14.683Z,1007.06
2017-05-13T11:40:23.641Z,1007.03
2017-05-13T11:41:32.904Z,1007.02
2017-05-13T11:42:42.190Z,1007.07
2017-05-13T11:43:51.147Z,1007.08
2017-05-13T11:45:00.108Z,1007.09
2017-05-13T11:46:09.109Z,1007.07
2017-05-13T11:47:18.326Z,1007.09
2017-05-13T11:48:27.381Z,1007.1
2017-05-13T11:49:36.338Z,1007.08
2017-05-13T11:50:45.293Z,1007.11
2017-05-13T11:51:54.260Z,1007.1
2017-05-13T11:53:03.517Z,1007.1
2017-05-13T11:54:12.477Z,1007.11
2017-05-13T11:55:21.481Z,1007.1
2017-05-13T11:56:30.443Z,1007.12
2017-05-13T11:57:39.490Z,1007.1
2017-05-13T11:58:48.785Z,1007.12
2017-05-13T11:59:57.745Z,1007.1
2017-05-13T12:01:06.703Z,1007.09
2017-05-13T12:02:15.660Z,1007.09
2017-05-13T12:03:24.622Z,1007.11
2017-05-13T12:04:33.880Z,1007.12
2017-05-13T12:05:42.845Z,1007.1
2017-05-13T12:06:51.802Z,1007.08
2017-05-13T12:08:00.768Z,1007.08
2017-05-13T12:09:09.731Z,1007.1
2017-05-13T12:10:18.987Z,1007.09
2017-05-13T12:11:27.948Z,1007.07
2017-05-13T12:12:36.916Z,1007.06
2017-05-13T12:13:45.878Z,1007.07
2017-05-13T12:14:54.833Z,1007.08
2017-05-13T12:16:04.094Z,1007.09
2017-05-13T12:17:13.058Z,1007.13
2017-05-13T12:18:22.016Z,1007.1
2017-05-13T12:19:30.980Z,1007.12
2017-05-13T12:20:39.940Z,1007.13
2017-05-13T12:21:49.282Z,1007.12
2017-05-13T12:22:58.249Z,1007.14
2017-05-13T12:24:07.216Z,1007.15
2017-05-13T12:25:16.172Z,1007.14
2017-05-13T12:26:25.137Z,1007.09
2017-05-13T12:27:34.349Z,1007.17
2017-05-13T12:28:43.305Z,1007.14
2017-05-13T12:29:52.263Z,1007.14
2017-05-13T12:31:01.228Z,1007.13
2017-05-13T12:32:10.186Z,1007.11
2017-05-13T12:33:19.486Z,1007.09
2017-05-13T12:34:28.447Z,1007.08
2017-05-13T12:35:37.495Z,1007.08
2017-05-13T12:36:46.793Z,1007.13
2017-05-13T12:37:55.755Z,1007.08
2017-05-13T12:39:05.018Z,1007.09
2017-05-13T12:40:14.068Z,1007.04
2017-05-13T12:41:23.036Z,1007.1
2017-05-13T12:42:31.996Z,1007.04
2017-05-13T12:43:41.289Z,1007.08
2017-05-13T12:44:50.638Z,1007.02
2017-05-13T12:45:59.596Z,1006.99
2017-05-13T12:47:08.557Z,1007
2017-05-13T12:48:17.513Z,1006.99
2017-05-13T12:49:26.478Z,1007.04
2017-05-13T12:50:35.694Z,1007.04
2017-05-13T12:51:44.653Z,1007.03
2017-05-13T12:52:53.618Z,1007
2017-05-13T12:54:02.579Z,1007.04
2017-05-13T12:55:11.633Z,1007.04
2017-05-13T12:56:20.901Z,1007.06
2017-05-13T12:57:29.869Z,1007.05
2017-05-13T12:58:38.838Z,1007.06
2017-05-13T12:59:47.893Z,1007.04
2017-05-13T13:00:56.852Z,1007.02
2017-05-13T13:02:06.168Z,1007.06
2017-05-13T13:03:15.129Z,1007.02
2017-05-13T13:04:24.086Z,1007.01
2017-05-13T13:05:33.048Z,1007
2017-05-13T13:06:42.009Z,1007.05
2017-05-13T13:07:51.270Z,1007
2017-05-13T13:09:00.231Z,1007.07
2017-05-13T13:10:09.288Z,1007.03
2017-05-13T13:11:18.250Z,1007.05
2017-05-13T13:12:27.301Z,1007.03
2017-05-13T13:13:36.513Z,1007.05
2017-05-13T13:14:45.471Z,1007.04
2017-05-13T13:15:54.429Z,1007.05
2017-05-13T13:17:03.386Z,1007.03
2017-05-13T13:18:12.347Z,1007.09
2017-05-13T13:19:21.608Z,1007.06
2017-05-13T13:20:30.571Z,1007.09
2017-05-13T13:21:39.536Z,1007.04
2017-05-13T13:22:48.973Z,1007.07
2017-05-13T13:23:58.047Z,1007.04
2017-05-13T13:25:07.395Z,1007.05
2017-05-13T13:26:16.443Z,1007.02
2017-05-13T13:27:25.398Z,1007.07
2017-05-13T13:28:34.359Z,1007.06
2017-05-13T13:29:43.324Z,1007.06
2017-05-13T13:30:52.534Z,1007.04
2017-05-13T13:32:01.492Z,1007.05
2017-05-13T13:33:10.448Z,1007.06
2017-05-13T13:34:19.449Z,1007.02
2017-05-13T13:35:28.408Z,1007.02
2017-05-13T13:36:37.618Z,1007.02
2017-05-13T13:37:46.913Z,1007.02
2017-05-13T13:38:55.874Z,1007.05
2017-05-13T13:40:04.925Z,1007.03
2017-05-13T13:41:13.887Z,1007.03
2017-05-13T13:42:23.103Z,1006.99
2017-05-13T13:43:32.064Z,1007
2017-05-13T13:44:41.021Z,1006.97
2017-05-13T13:45:50.070Z,1006.95
2017-05-13T13:46:59.031Z,1006.96
2017-05-13T13:48:08.293Z,1006.96
2017-05-13T13:49:17.262Z,1006.93
2017-05-13T13:50:26.224Z,1006.92
2017-05-13T13:51:35.186Z,1006.96
2017-05-13T13:52:44.161Z,1006.93
2017-05-13T13:53:53.746Z,1006.95
2017-05-13T13:55:02.708Z,1006.92
2017-05-13T13:56:11.748Z,1006.94
2017-05-13T13:57:20.708Z,1006.91
2017-05-13T13:58:29.680Z,1006.87